createdAt,value
2022-09-12T00:01:10.242Z,63.70
2022-09-12T00:03:37.470Z,64.40
2022-09-12T00:06:08.160Z,63.80
2022-09-12T00:08:34.935Z,63.10
2022-09-12T00:11:04.691Z,62.90
2022-09-12T00:13:31.373Z,62.40
2022-09-12T00:15:58.075Z,62.20
2022-09-12T00:18:24.733Z,62.00
2022-09-12T00:20:51.383Z,61.70
2022-09-12T00:23:18.178Z,62.10
2022-09-12T00:25:45.605Z,61.60
2022-09-12T00:28:12.799Z,61.10
2022-09-12T00:30:43.200Z,60.90
2022-09-12T00:33:10.524Z,60.80
2022-09-12T00:35:44.481Z,60.70
2022-09-12T00:38:11.921Z,60.50
2022-09-12T00:40:38.997Z,60.40
2022-09-12T00:43:05.868Z,60.20
2022-09-12T00:45:32.657Z,60.10
2022-09-12T00:48:02.254Z,60.10
2022-09-12T00:50:29.503Z,59.90
2022-09-12T00:52:59.821Z,60.00
2022-09-12T00:55:37.699Z,59.80
2022-09-12T00:58:23.457Z,59.90
2022-09-12T01:00:50.666Z,59.60
2022-09-12T01:03:19.447Z,59.80
2022-09-12T01:06:01.234Z,59.50
2022-09-12T01:08:28.605Z,59.30
2022-09-12T01:10:56.335Z,59.90
2022-09-12T01:13:23.329Z,59.70
2022-09-12T01:15:50.050Z,60.10
2022-09-12T01:18:28.977Z,59.60
2022-09-12T01:21:08.655Z,59.80
2022-09-12T01:23:53.847Z,59.60
2022-09-12T01:26:32.781Z,59.00
2022-09-12T01:29:31.173Z,59.40
2022-09-12T01:32:03.774Z,59.10
2022-09-12T01:34:37.209Z,59.00
2022-09-12T01:37:22.670Z,58.60
2022-09-12T01:39:55.377Z,59.20
2022-09-12T01:42:33.697Z,59.40
2022-09-12T01:45:04.484Z,59.30
2022-09-12T01:47:34.153Z,59.40
2022-09-12T01:50:03.130Z,59.50
2022-09-12T01:52:35.256Z,60.00
2022-09-12T01:55:09.765Z,59.80
2022-09-12T01:57:43.687Z,60.10
2022-09-12T02:03:35.022Z,59.80
2022-09-12T02:06:05.395Z,59.90
2022-09-12T02:08:35.563Z,59.90
2022-09-12T02:11:05.656Z,60.30
2022-09-12T02:13:35.517Z,59.80
2022-09-12T02:16:06.189Z,60.00
2022-09-12T02:18:34.055Z,60.10
2022-09-12T02:21:01.510Z,60.30
2022-09-12T02:23:29.303Z,60.10
2022-09-12T02:25:58.862Z,60.30
2022-09-12T02:28:27.718Z,60.10
2022-09-12T02:31:06.622Z,60.50
2022-09-12T02:33:41.880Z,59.80
2022-09-12T02:36:24.554Z,59.60
2022-09-12T02:38:51.507Z,60.00
2022-09-12T02:41:19.489Z,59.80
2022-09-12T02:43:46.955Z,59.80
2022-09-12T02:46:21.718Z,60.10
2022-09-12T02:48:48.383Z,60.20
2022-09-12T02:51:15.265Z,59.90
2022-09-12T02:53:42.082Z,59.70
2022-09-12T02:56:21.444Z,59.90
2022-09-12T02:58:48.418Z,60.10
2022-09-12T03:01:33.987Z,59.90
2022-09-12T03:04:00.702Z,60.30
2022-09-12T03:06:33.735Z,60.00
2022-09-12T03:09:05.983Z,60.00
2022-09-12T03:11:45.096Z,60.00
2022-09-12T03:14:11.911Z,60.20
2022-09-12T03:17:03.210Z,60.30
2022-09-12T03:19:32.680Z,60.20
2022-09-12T03:22:18.371Z,60.00
2022-09-12T03:24:50.589Z,59.70
2022-09-12T03:27:20.765Z,59.10
2022-09-12T03:29:48.159Z,59.30
2022-09-12T03:32:15.344Z,60.00
2022-09-12T03:34:42.011Z,59.10
2022-09-12T03:37:08.717Z,58.90
2022-09-12T03:39:35.445Z,58.70
2022-09-12T03:42:02.117Z,59.40
2022-09-12T03:44:28.892Z,59.40
2022-09-12T03:46:55.638Z,60.00
2022-09-12T03:49:22.314Z,59.80
2022-09-12T03:51:48.963Z,59.80
2022-09-12T03:54:15.738Z,59.70
2022-09-12T03:56:42.402Z,59.70
2022-09-12T03:59:09.129Z,59.60
2022-09-12T04:01:35.838Z,59.50
2022-09-12T04:04:02.659Z,59.60
2022-09-12T04:06:29.821Z,59.40
2022-09-12T04:08:56.909Z,59.00
2022-09-12T04:11:23.867Z,58.80
2022-09-12T04:13:50.973Z,58.40
2022-09-12T04:16:18.613Z,58.30
2022-09-12T04:18:46.022Z,58.30
2022-09-12T04:21:14.592Z,58.20
2022-09-12T04:23:41.565Z,58.10
2022-09-12T04:26:08.408Z,58.60
2022-09-12T04:28:35.979Z,59.00
2022-09-12T04:31:04.945Z,59.00
2022-09-12T04:33:31.929Z,59.20
2022-09-12T04:36:02.984Z,59.40
2022-09-12T04:38:29.701Z,60.00
2022-09-12T04:40:57.107Z,59.60
2022-09-12T04:43:23.809Z,59.80
2022-09-12T04:45:50.523Z,60.70
2022-09-12T04:48:17.244Z,60.60
2022-09-12T04:50:44.006Z,60.40
2022-09-12T04:53:10.720Z,60.50
2022-09-12T04:55:37.426Z,60.70
2022-09-12T04:58:04.223Z,60.70
2022-09-12T05:00:30.926Z,60.80
2022-09-12T05:02:57.769Z,61.30
2022-09-12T05:05:24.414Z,61.30
2022-09-12T05:07:51.112Z,61.20
2022-09-12T05:10:18.200Z,61.00
2022-09-12T05:12:44.880Z,60.80
2022-09-12T05:15:12.106Z,60.80
2022-09-12T05:17:38.775Z,61.10
2022-09-12T05:20:05.647Z,61.30
2022-09-12T05:22:32.339Z,60.80
2022-09-12T05:24:59.022Z,60.70
2022-09-12T05:27:25.675Z,60.50
2022-09-12T05:29:52.370Z,60.50
2022-09-12T05:32:19.088Z,60.50
2022-09-12T05:34:45.817Z,60.00
2022-09-12T05:37:13.056Z,60.00
2022-09-12T05:39:39.822Z,60.00
2022-09-12T05:42:06.590Z,59.70
2022-09-12T05:44:33.590Z,60.10
2022-09-12T05:47:00.264Z,61.10
2022-09-12T05:49:26.954Z,60.10
2022-09-12T05:51:53.644Z,59.20
2022-09-12T05:54:21.213Z,59.10
2022-09-12T05:56:49.072Z,58.90
2022-09-12T05:59:20.506Z,58.80
2022-09-12T06:01:48.327Z,58.80
2022-09-12T06:04:15.137Z,58.90
2022-09-12T06:06:44.920Z,59.00
2022-09-12T06:09:12.607Z,59.10
2022-09-12T06:11:42.986Z,58.70
2022-09-12T06:14:10.876Z,58.80
2022-09-12T06:16:37.900Z,58.60
2022-09-12T06:19:07.304Z,59.00
2022-09-12T06:21:35.427Z,58.50
2022-09-12T06:24:02.271Z,58.20
2022-09-12T06:26:29.311Z,58.40
2022-09-12T06:28:56.714Z,59.00
2022-09-12T06:31:25.268Z,59.40
2022-09-12T06:33:52.633Z,58.70
2022-09-12T06:36:21.293Z,58.90
2022-09-12T06:38:48.884Z,58.70
2022-09-12T06:41:15.892Z,57.90
2022-09-12T06:43:42.852Z,58.20
2022-09-12T06:46:10.709Z,58.40
2022-09-12T06:48:41.755Z,58.10
2022-09-12T06:51:13.533Z,57.50
2022-09-12T06:53:41.028Z,57.40
2022-09-12T06:56:19.312Z,57.80
2022-09-12T06:58:47.186Z,57.10
2022-09-12T07:01:24.452Z,57.10
2022-09-12T07:03:55.847Z,57.50
2022-09-12T07:06:31.575Z,56.40
2022-09-12T07:08:59.329Z,56.70
2022-09-12T07:11:27.005Z,56.70
2022-09-12T07:13:54.736Z,55.80
2022-09-12T07:16:21.726Z,56.40
2022-09-12T07:18:52.349Z,55.60
2022-09-12T07:21:20.785Z,55.70
2022-09-12T07:23:47.990Z,55.30
2022-09-12T07:26:15.697Z,54.90
2022-09-12T07:28:42.716Z,54.80
2022-09-12T07:31:13.967Z,55.50
2022-09-12T07:33:41.260Z,53.30
2022-09-12T07:36:16.373Z,53.00
2022-09-12T07:38:44.015Z,52.00
2022-09-12T07:41:14.690Z,52.20
2022-09-12T07:43:44.730Z,52.30
2022-09-12T07:46:11.877Z,51.80
2022-09-12T07:48:39.195Z,52.20
2022-09-12T07:51:07.501Z,51.60
2022-09-12T07:53:36.032Z,50.70
2022-09-12T07:56:03.598Z,49.80
2022-09-12T07:58:30.862Z,50.80
2022-09-12T08:01:04.419Z,52.80
2022-09-12T08:03:31.243Z,50.80
2022-09-12T08:06:11.159Z,49.20
2022-09-12T08:08:38.458Z,49.30
2022-09-12T08:11:06.404Z,48.80
2022-09-12T08:13:34.122Z,48.60
2022-09-12T08:16:02.247Z,48.60
2022-09-12T08:18:30.076Z,47.80
2022-09-12T08:21:00.632Z,49.50
2022-09-12T08:23:30.293Z,50.00
2022-09-12T08:25:58.238Z,49.40
2022-09-12T08:28:25.744Z,49.20
2022-09-12T08:30:53.193Z,48.00
2022-09-12T08:33:20.362Z,49.40
2022-09-12T08:35:47.537Z,48.90
2022-09-12T08:38:14.288Z,48.20
2022-09-12T08:40:47.463Z,48.30
2022-09-12T08:43:29.149Z,49.50
2022-09-12T08:46:02.413Z,49.30
2022-09-12T08:48:29.602Z,48.60
2022-09-12T08:50:56.381Z,48.80
2022-09-12T08:53:25.234Z,48.60
2022-09-12T08:55:59.709Z,47.90
2022-09-12T08:58:28.171Z,47.80
2022-09-12T09:01:01.335Z,48.80
2022-09-12T09:03:36.111Z,49.80
2022-09-12T09:06:08.693Z,49.40
2022-09-12T09:08:45.862Z,49.80
2022-09-12T09:11:12.561Z,49.90
2022-09-12T09:14:16.789Z,49.50
2022-09-12T09:16:44.823Z,49.70
2022-09-12T09:19:15.285Z,49.30
2022-09-12T09:21:44.841Z,49.70
2022-09-12T09:24:12.932Z,49.10
2022-09-12T09:26:43.354Z,49.10
2022-09-12T09:29:16.381Z,49.50
2022-09-12T09:31:45.916Z,49.90
2022-09-12T09:34:20.764Z,48.90
2022-09-12T09:36:51.812Z,50.20
2022-09-12T09:39:30.141Z,48.80
2022-09-12T09:41:56.768Z,50.50
2022-09-12T09:44:23.801Z,49.50
2022-09-12T09:46:55.635Z,50.80
2022-09-12T09:49:23.703Z,49.30
2022-09-12T09:51:50.781Z,49.40
2022-09-12T09:54:20.320Z,49.40
2022-09-12T09:56:47.187Z,49.80
2022-09-12T09:59:18.527Z,50.00
2022-09-12T10:01:51.160Z,49.60
2022-09-12T10:04:19.918Z,49.50
2022-09-12T10:06:46.787Z,49.10
2022-09-12T10:09:22.198Z,50.50
2022-09-12T10:11:49.560Z,49.50
2022-09-12T10:14:36.935Z,50.20
2022-09-12T10:17:22.419Z,47.50
2022-09-12T10:20:04.580Z,46.50
2022-09-12T10:22:35.858Z,49.00
2022-09-12T10:25:02.783Z,46.90
2022-09-12T10:27:33.073Z,45.50
2022-09-12T10:29:59.754Z,46.10
2022-09-12T10:32:31.097Z,45.90
2022-09-12T10:35:04.171Z,46.60
2022-09-12T10:37:37.394Z,45.80
2022-09-12T10:40:06.564Z,44.90
2022-09-12T10:42:47.989Z,44.20
2022-09-12T10:45:31.118Z,44.60
2022-09-12T10:48:07.385Z,45.90
2022-09-12T10:50:42.727Z,47.00
2022-09-12T10:53:24.283Z,45.40
2022-09-12T10:56:26.665Z,44.70
2022-09-12T10:59:20.048Z,45.60
2022-09-12T11:02:02.557Z,44.00
2022-09-12T11:04:35.315Z,44.50
2022-09-12T11:07:06.689Z,42.90
2022-09-12T11:09:57.369Z,45.10
2022-09-12T11:12:27.193Z,44.50
2022-09-12T11:15:22.427Z,45.60
2022-09-12T11:18:06.060Z,46.00
2022-09-12T11:20:53.459Z,42.90
2022-09-12T11:23:49.278Z,44.70
2022-09-12T11:26:34.553Z,40.40
2022-09-12T11:29:20.064Z,42.20
2022-09-12T11:31:56.977Z,43.80
2022-09-12T11:34:29.586Z,42.90
2022-09-12T11:37:19.344Z,41.50
2022-09-12T11:39:46.992Z,41.60
2022-09-12T11:42:18.012Z,39.40
2022-09-12T11:44:51.814Z,40.30
2022-09-12T11:47:20.245Z,41.30
2022-09-12T11:49:49.559Z,42.10
2022-09-12T11:52:18.735Z,40.70
2022-09-12T11:54:53.386Z,40.20
2022-09-12T11:57:28.198Z,41.70
2022-09-12T11:59:54.867Z,40.50
2022-09-12T12:02:27.861Z,40.80
2022-09-12T12:05:14.339Z,39.30
2022-09-12T12:07:45.598Z,40.90
2022-09-12T12:10:24.270Z,40.60
2022-09-12T12:12:51.909Z,40.10
2022-09-12T12:15:19.265Z,40.60
2022-09-12T12:17:59.320Z,42.40
2022-09-12T12:20:27.280Z,43.80
2022-09-12T12:22:54.482Z,44.80
2022-09-12T12:25:29.465Z,43.40
2022-09-12T12:28:01.908Z,44.40
2022-09-12T12:30:32.006Z,43.00
2022-09-12T12:33:02.316Z,40.70
2022-09-12T12:35:38.102Z,40.50
2022-09-12T12:38:24.730Z,39.80
2022-09-12T12:40:51.546Z,40.50
2022-09-12T12:43:32.179Z,41.30
2022-09-12T12:46:01.027Z,40.40
2022-09-12T12:48:29.595Z,40.40
2022-09-12T12:51:15.472Z,39.90
2022-09-12T12:53:42.372Z,40.00
2022-09-12T12:56:26.695Z,39.90
2022-09-12T12:59:00.823Z,39.50
2022-09-12T13:01:28.338Z,40.00
2022-09-12T13:03:57.121Z,39.80
2022-09-12T13:06:26.896Z,40.80
2022-09-12T13:08:59.904Z,39.70
2022-09-12T13:11:31.966Z,40.60
2022-09-12T13:14:00.352Z,40.90
2022-09-12T13:16:40.757Z,38.70
2022-09-12T13:19:20.576Z,38.80
2022-09-12T13:21:56.706Z,39.80
2022-09-12T13:24:23.781Z,40.30
2022-09-12T13:26:50.583Z,40.40
2022-09-12T13:29:21.797Z,39.70
2022-09-12T13:31:49.798Z,39.70
2022-09-12T13:34:22.196Z,39.90
2022-09-12T13:36:57.530Z,39.00
2022-09-12T13:39:43.164Z,38.10
2022-09-12T13:42:26.925Z,38.00
2022-09-12T13:45:05.903Z,38.80
2022-09-12T13:47:34.676Z,40.20
2022-09-12T13:50:03.500Z,37.70
2022-09-12T13:52:31.949Z,38.60
2022-09-12T13:54:59.720Z,36.70
2022-09-12T13:57:31.149Z,38.10
2022-09-12T13:59:58.962Z,37.90
2022-09-12T14:02:27.781Z,37.00
2022-09-12T14:05:10.421Z,37.90
2022-09-12T14:07:58.422Z,36.90
2022-09-12T14:10:33.110Z,36.70
2022-09-12T14:13:11.499Z,36.90
2022-09-12T14:15:38.793Z,36.70
2022-09-12T14:18:06.731Z,36.70
2022-09-12T14:20:36.766Z,36.60
2022-09-12T14:23:06.421Z,37.30
2022-09-12T14:25:37.545Z,37.20
2022-09-12T14:28:04.674Z,37.20
2022-09-12T14:30:32.956Z,36.90
2022-09-12T14:33:11.968Z,37.40
2022-09-12T14:35:43.400Z,37.20
2022-09-12T14:38:16.568Z,36.00
2022-09-12T14:40:48.640Z,36.30
2022-09-12T14:43:20.151Z,36.80
2022-09-12T14:45:52.613Z,36.60
2022-09-12T14:48:20.083Z,37.20
2022-09-12T14:50:51.525Z,37.50
2022-09-12T14:53:18.199Z,37.50
2022-09-12T14:55:55.235Z,38.50
2022-09-12T14:58:24.055Z,39.60
2022-09-12T15:00:53.465Z,39.70
2022-09-12T15:03:27.857Z,39.40
2022-09-12T15:05:55.152Z,38.70
2022-09-12T15:08:21.947Z,37.90
2022-09-12T15:10:49.181Z,39.20
2022-09-12T15:13:20.206Z,38.50
2022-09-12T15:15:48.583Z,38.90
2022-09-12T15:18:15.714Z,38.70
2022-09-12T15:20:43.365Z,38.50
2022-09-12T15:23:19.233Z,39.40
2022-09-12T15:25:45.930Z,39.70
2022-09-12T15:28:17.189Z,39.60
2022-09-12T15:30:44.161Z,39.90
2022-09-12T15:33:11.427Z,39.60
2022-09-12T15:35:38.374Z,40.50
2022-09-12T15:38:05.129Z,40.40
2022-09-12T15:40:31.821Z,41.30
2022-09-12T15:42:58.991Z,39.90
2022-09-12T15:45:33.415Z,40.10
2022-09-12T15:48:00.908Z,40.60
2022-09-12T15:50:28.159Z,40.50
2022-09-12T15:52:55.709Z,40.30
2022-09-12T15:55:27.967Z,39.90
2022-09-12T15:57:55.605Z,39.30
2022-09-12T16:00:22.883Z,38.40
2022-09-12T16:02:55.494Z,37.10
2022-09-12T16:05:25.639Z,37.50
2022-09-12T16:07:54.380Z,38.40
2022-09-12T16:10:25.826Z,39.10
2022-09-12T16:12:53.001Z,39.30
2022-09-12T16:15:22.631Z,38.70
2022-09-12T16:17:50.085Z,39.20
2022-09-12T16:20:18.068Z,39.70
2022-09-12T16:22:44.884Z,39.40
2022-09-12T16:25:11.677Z,39.60
2022-09-12T16:27:38.675Z,40.40
2022-09-12T16:30:06.364Z,40.70
2022-09-12T16:32:33.481Z,41.00
2022-09-12T16:35:00.759Z,41.00
2022-09-12T16:37:28.015Z,41.20
2022-09-12T16:39:54.880Z,41.90
2022-09-12T16:42:21.753Z,41.40
2022-09-12T16:44:48.599Z,41.30
2022-09-12T16:47:15.282Z,41.00
2022-09-12T16:49:42.075Z,42.20
2022-09-12T16:52:08.813Z,41.50
2022-09-12T16:54:35.834Z,41.70
2022-09-12T16:57:05.307Z,41.90
2022-09-12T16:59:32.437Z,41.50
2022-09-12T17:01:59.203Z,41.70
2022-09-12T17:04:26.045Z,41.90
2022-09-12T17:06:52.786Z,42.20
2022-09-12T17:09:19.540Z,41.80
2022-09-12T17:11:50.421Z,42.40
2022-09-12T17:14:17.285Z,43.70
2022-09-12T17:16:50.869Z,44.90
2022-09-12T17:19:24.476Z,46.40
2022-09-12T17:21:51.188Z,47.20
2022-09-12T17:24:18.025Z,47.50
2022-09-12T17:26:45.250Z,48.70
2022-09-12T17:29:12.795Z,49.30
2022-09-12T17:31:42.892Z,49.20
2022-09-12T17:34:10.002Z,49.30
2022-09-12T17:36:36.939Z,50.20
2022-09-12T17:39:04.205Z,50.50
2022-09-12T17:41:34.377Z,51.30
2022-09-12T17:44:02.644Z,51.80
2022-09-12T17:46:35.079Z,51.90
2022-09-12T17:49:02.773Z,51.60
2022-09-12T17:51:31.162Z,52.10
2022-09-12T17:53:59.146Z,52.20
2022-09-12T17:56:28.003Z,51.70
2022-09-12T17:58:55.513Z,51.80
2022-09-12T18:01:41.112Z,52.10
2022-09-12T18:04:08.205Z,52.50
2022-09-12T18:06:35.351Z,53.00
2022-09-12T18:09:02.425Z,53.10
2022-09-12T18:11:29.460Z,53.50
2022-09-12T18:13:57.679Z,53.90
2022-09-12T18:16:24.654Z,53.90
2022-09-12T18:18:51.513Z,54.60
2022-09-12T18:21:18.382Z,55.80
2022-09-12T18:23:45.314Z,56.50
2022-09-12T18:26:13.633Z,56.90
2022-09-12T18:28:41.884Z,57.30
2022-09-12T18:31:19.096Z,57.50
2022-09-12T18:33:46.407Z,57.40
2022-09-12T18:36:13.624Z,58.80
2022-09-12T18:38:40.577Z,58.70
2022-09-12T18:41:08.489Z,59.10
2022-09-12T18:43:35.293Z,60.20
2022-09-12T18:46:03.212Z,60.50
2022-09-12T18:48:30.385Z,61.00
2022-09-12T18:51:17.937Z,61.30
2022-09-12T18:53:49.007Z,62.30
2022-09-12T18:56:15.838Z,62.10
2022-09-12T18:58:43.254Z,62.70
2022-09-12T19:01:17.172Z,63.40
2022-09-12T19:03:44.366Z,63.40
2022-09-12T19:06:13.634Z,64.30
2022-09-12T19:08:40.841Z,64.90
2022-09-12T19:11:08.077Z,65.00
2022-09-12T19:13:36.148Z,65.10
2022-09-12T19:16:03.753Z,65.80
2022-09-12T19:18:34.081Z,66.70
2022-09-12T19:21:01.472Z,67.50
2022-09-12T19:23:30.348Z,67.60
2022-09-12T19:25:58.090Z,68.00
2022-09-12T19:28:24.909Z,68.20
2022-09-12T19:30:51.730Z,69.60
2022-09-12T19:33:19.022Z,70.30
2022-09-12T19:35:46.028Z,69.60
2022-09-12T19:38:13.476Z,70.00
2022-09-12T19:40:40.723Z,70.30
2022-09-12T19:43:07.855Z,70.20
2022-09-12T19:45:34.765Z,70.00
2022-09-12T19:48:01.914Z,70.50
2022-09-12T19:50:30.941Z,70.90
2022-09-12T19:52:58.085Z,71.40
2022-09-12T19:55:25.024Z,71.10
2022-09-12T19:57:51.937Z,71.00
2022-09-12T20:00:18.626Z,70.90
2022-09-12T20:02:49.918Z,71.80
2022-09-12T20:05:16.709Z,74.00
2022-09-12T20:07:43.506Z,73.40
2022-09-12T20:10:10.324Z,73.10
2022-09-12T20:12:37.207Z,73.30
2022-09-12T20:15:04.489Z,73.40
2022-09-12T20:17:31.698Z,74.10
2022-09-12T20:19:58.386Z,73.70
2022-09-12T20:22:25.260Z,73.30
2022-09-12T20:24:52.006Z,74.50
2022-09-12T20:27:18.719Z,74.40
2022-09-12T20:29:46.368Z,74.00
2022-09-12T20:32:13.157Z,74.00
2022-09-12T20:34:39.851Z,74.50
2022-09-12T20:37:06.536Z,73.90
2022-09-12T20:39:33.291Z,75.20
2022-09-12T20:41:59.946Z,76.10
2022-09-12T20:44:26.606Z,78.70
2022-09-12T20:46:53.431Z,79.60
2022-09-12T20:49:20.318Z,81.20
2022-09-12T20:51:48.398Z,81.20
2022-09-12T20:54:15.497Z,81.60
2022-09-12T20:56:42.414Z,80.50
2022-09-12T20:59:11.358Z,79.20
2022-09-12T21:01:38.205Z,79.30
2022-09-12T21:04:04.979Z,78.50
2022-09-12T21:06:31.872Z,81.20
2022-09-12T21:09:00.511Z,80.20
2022-09-12T21:11:28.139Z,80.50
2022-09-12T21:13:54.936Z,80.20
2022-09-12T21:16:22.573Z,79.60
2022-09-12T21:18:53.856Z,79.00
2022-09-12T21:21:20.982Z,79.30
2022-09-12T21:23:47.742Z,78.80
2022-09-12T21:26:14.599Z,79.50
2022-09-12T21:28:41.281Z,80.50
2022-09-12T21:31:08.761Z,80.50
2022-09-12T21:33:35.452Z,80.00
2022-09-12T21:36:03.648Z,79.60
2022-09-12T21:38:30.961Z,79.30
2022-09-12T21:41:10.763Z,81.20
2022-09-12T21:43:38.054Z,82.40
2022-09-12T21:46:05.692Z,81.30
2022-09-12T21:48:32.822Z,81.70
2022-09-12T21:50:59.787Z,81.80
2022-09-12T21:53:27.254Z,81.70
2022-09-12T21:55:53.964Z,81.50
2022-09-12T21:58:20.685Z,81.00
2022-09-12T22:00:48.486Z,80.70
2022-09-12T22:03:16.727Z,80.50
2022-09-12T22:05:44.338Z,80.30
2022-09-12T22:08:11.369Z,79.80
2022-09-12T22:10:38.621Z,81.20
2022-09-12T22:13:05.733Z,80.70
2022-09-12T22:15:41.098Z,81.00
2022-09-12T22:18:08.139Z,81.40
2022-09-12T22:20:34.799Z,82.60
2022-09-12T22:23:24.422Z,82.50
2022-09-12T22:25:53.712Z,82.30
2022-09-12T22:28:21.328Z,85.70
2022-09-12T22:30:48.608Z,84.70
2022-09-12T22:33:15.466Z,85.10
2022-09-12T22:35:42.534Z,85.40
2022-09-12T22:38:12.018Z,85.30
2022-09-12T22:40:38.958Z,85.50
2022-09-12T22:43:05.783Z,85.70
2022-09-12T22:45:32.476Z,85.10
2022-09-12T22:48:00.810Z,85.00
2022-09-12T22:50:28.082Z,84.10
2022-09-12T22:52:54.828Z,82.50
2022-09-12T22:55:21.514Z,81.00
2022-09-12T22:57:48.264Z,79.10
2022-09-12T23:00:15.043Z,77.90
2022-09-12T23:02:44.837Z,76.60
2022-09-12T23:05:11.672Z,75.10
2022-09-12T23:07:38.405Z,75.10
2022-09-12T23:10:05.245Z,73.40
2022-09-12T23:12:32.014Z,72.40
2022-09-12T23:14:58.749Z,71.90
2022-09-12T23:17:25.489Z,71.40
2022-09-12T23:19:52.583Z,71.20
2022-09-12T23:22:19.256Z,70.60
2022-09-12T23:24:45.952Z,70.30
2022-09-12T23:27:12.617Z,69.90
2022-09-12T23:29:39.258Z,70.10
2022-09-12T23:32:06.709Z,70.90
2022-09-12T23:34:33.580Z,71.30
2022-09-12T23:37:00.221Z,71.30
2022-09-12T23:39:26.939Z,71.60
2022-09-12T23:41:53.709Z,74.00
2022-09-12T23:44:20.407Z,76.00
2022-09-12T23:46:47.238Z,75.80
2022-09-12T23:49:13.994Z,76.60
2022-09-12T23:51:40.676Z,76.40
2022-09-12T23:54:07.383Z,76.20
2022-09-12T23:56:34.180Z,74.70
2022-09-12T23:59:00.845Z,73.40
